Time;durP1;ratioP1;P1;durP2;ratioP2;P2;SDS_P1;SDS_P2;PMS_P1;PMS_P2;Temp;Humidity;BMP_temperature;BMP_pressure;BME280_temperature;BME280_humidity;BME280_pressure;Samples;Min_cycle;Max_cycle;Signal;HPM_P1;HPM_P2
2022/01/02 00:01:42;;;;;;;15.60;4.93;;;12.50;99.90;;;;;;5076365;28;20392;-80
2022/01/02 00:04:13;;;;;;;11.57;4.88;;;12.50;99.90;;;;;;5076165;28;20020;-80
2022/01/02 00:06:46;;;;;;;12.07;5.70;;;12.50;99.90;;;;;;5075994;28;20024;-80
2022/01/02 00:09:30;;;;;;;15.32;4.95;;;12.50;99.90;;;;;;5075850;28;20035;-80
2022/01/02 00:12:04;;;;;;;13.15;4.70;;;12.50;99.90;;;;;;5057976;28;20446;-79
2022/01/02 00:14:34;;;;;;;10.23;4.60;;;12.50;99.90;;;;;;5075929;28;20028;-79
2022/01/02 00:17:03;;;;;;;12.27;4.47;;;12.40;99.90;;;;;;5075898;28;20093;-79
2022/01/02 00:19:31;;;;;;;10.15;4.10;;;12.30;99.90;;;;;;5075534;28;20094;-78
2022/01/02 00:22:03;;;;;;;13.88;4.82;;;12.20;99.90;;;;;;5075680;28;20032;-79
2022/01/02 00:24:31;;;;;;;13.30;4.55;;;12.40;99.90;;;;;;5075677;28;20035;-78
2022/01/02 00:26:59;;;;;;;11.27;4.43;;;12.40;99.90;;;;;;5074509;28;20094;-77
2022/01/02 00:29:25;;;;;;;11.77;4.60;;;12.30;99.90;;;;;;5057814;28;20111;-78
2022/01/02 00:31:53;;;;;;;12.13;5.43;;;12.30;99.90;;;;;;5074375;28;20089;-77
2022/01/02 00:34:19;;;;;;;11.93;5.03;;;12.30;99.90;;;;;;5074668;28;20044;-78
2022/01/02 00:36:45;;;;;;;16.70;5.18;;;12.30;99.90;;;;;;5074648;28;20377;-77
2022/01/02 00:39:11;;;;;;;12.63;5.57;;;12.20;99.90;;;;;;5074215;28;20166;-77
2022/01/02 00:41:57;;;;;;;15.27;4.55;;;12.30;99.90;;;;;;5075307;28;20047;-77
2022/01/02 00:44:49;;;;;;;13.65;4.88;;;12.20;99.90;;;;;;5075556;28;20039;-77
2022/01/02 00:47:56;;;;;;;11.30;5.05;;;12.10;99.90;;;;;;5075455;28;20033;-77
2022/01/02 00:50:38;;;;;;;11.50;4.80;;;12.20;99.90;;;;;;5055749;28;20102;-77
2022/01/02 00:53:05;;;;;;;13.15;4.68;;;12.30;99.90;;;;;;5039799;28;20098;-77
2022/01/02 00:55:34;;;;;;;15.18;4.88;;;12.20;99.90;;;;;;5065828;28;20033;-77
2022/01/02 00:58:02;;;;;;;15.35;4.25;;;12.30;99.90;;;;;;5073958;28;20082;-77
2022/01/02 01:00:29;;;;;;;11.30;5.05;;;12.40;99.90;;;;;;5073640;28;20143;-77
2022/01/02 01:02:57;;;;;;;19.02;5.78;;;12.40;99.90;;;;;;5073875;28;20027;-78
2022/01/02 01:05:31;;;;;;;15.85;4.70;;;12.30;99.90;;;;;;5062515;28;20462;-76
2022/01/02 01:08:00;;;;;;;17.48;5.68;;;12.30;99.90;;;;;;5053900;28;20094;-77
2022/01/02 01:10:28;;;;;;;15.80;4.93;;;12.30;99.90;;;;;;5073401;28;20550;-78
2022/01/02 01:12:57;;;;;;;16.92;5.30;;;12.20;99.90;;;;;;5075178;28;20411;-77
2022/01/02 01:15:28;;;;;;;11.27;4.72;;;12.30;99.90;;;;;;5073691;28;20028;-77
2022/01/02 01:17:56;;;;;;;16.23;4.50;;;12.30;99.90;;;;;;5073739;28;20063;-78
2022/01/02 01:20:23;;;;;;;12.50;4.85;;;12.20;99.90;;;;;;5074240;28;20040;-77
2022/01/02 01:22:49;;;;;;;14.07;4.47;;;12.20;99.90;;;;;;5073356;28;20059;-78
2022/01/02 01:25:18;;;;;;;13.52;5.35;;;12.20;99.90;;;;;;5073479;28;20024;-78
2022/01/02 01:27:45;;;;;;;9.52;4.50;;;12.20;99.90;;;;;;5074479;28;20529;-78
2022/01/02 01:30:12;;;;;;;15.27;4.85;;;12.20;99.90;;;;;;5074529;28;20028;-77
2022/01/02 01:32:38;;;;;;;15.48;5.10;;;12.30;99.90;;;;;;5072874;28;20029;-77
2022/01/02 01:35:05;;;;;;;13.38;4.25;;;12.30;99.90;;;;;;5073241;28;20109;-77
2022/01/02 01:37:31;;;;;;;15.20;4.45;;;12.30;99.90;;;;;;5074416;28;20032;-78
2022/01/02 01:39:58;;;;;;;11.45;4.43;;;12.30;99.90;;;;;;5074524;28;20485;-77
2022/01/02 01:42:38;;;;;;;16.83;5.22;;;12.30;99.90;;;;;;5072802;28;20021;-77
2022/01/02 01:47:56;;;;;;;15.45;4.50;;;12.40;99.90;;;;;;5072230;28;20491;-78
2022/01/02 01:50:26;;;;;;;14.02;4.90;;;12.40;99.90;;;;;;5073998;28;20096;-78
2022/01/02 01:52:52;;;;;;;9.70;4.40;;;12.30;99.90;;;;;;5072702;28;20027;-77
2022/01/02 01:55:18;;;;;;;14.77;4.75;;;12.40;99.90;;;;;;5072925;28;20052;-77
2022/01/02 01:57:45;;;;;;;14.98;4.32;;;12.40;99.90;;;;;;5056155;28;20020;-78
2022/01/02 02:00:17;;;;;;;19.92;5.35;;;12.50;99.90;;;;;;5072735;28;20109;-78
2022/01/02 02:02:45;;;;;;;13.32;3.90;;;12.60;99.90;;;;;;5073890;28;20040;-78
2022/01/02 02:05:13;;;;;;;15.18;3.85;;;12.70;99.90;;;;;;5072610;28;20028;-77
2022/01/02 02:07:43;;;;;;;17.27;4.75;;;12.60;99.90;;;;;;5072492;28;20021;-77
2022/01/02 02:10:24;;;;;;;17.33;4.40;;;12.50;99.90;;;;;;5072332;28;20031;-78
2022/01/02 02:12:54;;;;;;;18.52;5.22;;;12.50;99.90;;;;;;5072250;28;20055;-78
2022/01/02 02:15:21;;;;;;;12.20;4.35;;;12.50;99.90;;;;;;5072369;28;20498;-78
2022/01/02 02:17:49;;;;;;;13.57;4.07;;;12.60;99.90;;;;;;5055280;28;20123;-79
2022/01/02 02:20:15;;;;;;;12.80;4.15;;;12.60;99.90;;;;;;5072176;28;20040;-78
2022/01/02 02:22:44;;;;;;;11.07;4.30;;;12.50;99.90;;;;;;5072090;28;20027;-78
2022/01/02 02:25:11;;;;;;;14.73;4.05;;;12.60;99.90;;;;;;5055552;28;20488;-78
2022/01/02 02:27:38;;;;;;;15.70;3.95;;;12.60;99.90;;;;;;5052327;28;20039;-77
2022/01/02 02:30:05;;;;;;;13.60;4.30;;;12.70;99.90;;;;;;5052151;28;20394;-78
2022/01/02 02:32:31;;;;;;;16.77;4.35;;;12.70;99.90;;;;;;5052968;28;20021;-78
2022/01/02 02:34:57;;;;;;;18.77;4.32;;;12.70;99.90;;;;;;5052376;28;20025;-78
2022/01/02 02:37:24;;;;;;;12.52;4.05;;;12.70;99.90;;;;;;5051939;28;20033;-78
2022/01/02 02:39:51;;;;;;;12.70;4.25;;;12.60;99.90;;;;;;5051901;28;20604;-79
2022/01/02 02:42:33;;;;;;;12.18;4.93;;;12.60;99.90;;;;;;5053308;28;20116;-79
2022/01/02 02:50:45;;;;;;;9.57;4.40;;;12.60;99.90;;;;;;5051922;28;20041;-78
2022/01/02 02:53:14;;;;;;;14.50;4.30;;;12.60;99.90;;;;;;5052120;28;20031;-79
2022/01/02 02:55:45;;;;;;;14.65;3.67;;;12.60;99.90;;;;;;5052060;28;20037;-79
2022/01/02 03:00:56;;;;;;;15.88;4.97;;;12.70;99.90;;;;;;5051178;28;20040;-80
2022/01/02 03:03:23;;;;;;;10.05;3.75;;;12.70;99.90;;;;;;5051866;28;20025;-79
2022/01/02 03:05:48;;;;;;;11.93;4.03;;;12.80;99.90;;;;;;5051868;28;20500;-78
2022/01/02 03:08:14;;;;;;;8.52;3.50;;;12.70;99.90;;;;;;5037446;28;20059;-78
2022/01/02 03:10:40;;;;;;;12.15;3.70;;;12.80;99.90;;;;;;5051702;28;20064;-78
2022/01/02 03:13:06;;;;;;;13.35;4.25;;;12.70;99.90;;;;;;5052854;28;20029;-79
2022/01/02 03:15:31;;;;;;;11.85;4.30;;;12.70;99.90;;;;;;5052598;28;20086;-77
2022/01/02 03:17:57;;;;;;;12.77;4.43;;;12.70;99.90;;;;;;5051659;28;20021;-77
2022/01/02 03:20:23;;;;;;;18.42;4.00;;;12.60;99.90;;;;;;5051181;28;20041;-79
2022/01/02 03:22:50;;;;;;;12.68;4.40;;;12.70;99.90;;;;;;5051820;28;21066;-78
2022/01/02 03:25:17;;;;;;;15.23;3.90;;;12.60;99.90;;;;;;5053175;28;20055;-79
2022/01/02 03:27:43;;;;;;;14.65;3.70;;;12.80;99.90;;;;;;5071495;28;20021;-79
2022/01/02 03:30:11;;;;;;;15.43;4.00;;;12.70;99.90;;;;;;5071180;28;20028;-79
2022/01/02 03:32:37;;;;;;;9.02;4.13;;;12.60;99.90;;;;;;5071415;28;20160;-79
2022/01/02 03:35:04;;;;;;;11.68;3.50;;;12.70;99.90;;;;;;5054730;28;20123;-79
2022/01/02 03:37:33;;;;;;;11.85;4.20;;;12.70;99.90;;;;;;5071422;28;20377;-79
2022/01/02 03:40:00;;;;;;;9.13;3.63;;;12.70;99.90;;;;;;5071219;28;20029;-79
2022/01/02 03:42:26;;;;;;;9.63;3.50;;;12.60;99.90;;;;;;5071394;28;20497;-79
2022/01/02 03:44:51;;;;;;;16.80;4.75;;;12.50;99.90;;;;;;5071998;28;20032;-79
2022/01/02 03:47:18;;;;;;;15.07;4.70;;;12.50;99.90;;;;;;5071272;28;20033;-79
2022/01/02 03:49:44;;;;;;;7.78;3.88;;;12.40;99.90;;;;;;5071010;28;20024;-79
2022/01/02 03:52:10;;;;;;;9.23;4.50;;;12.50;99.90;;;;;;5071424;28;20493;-77
2022/01/02 03:54:36;;;;;;;15.65;4.03;;;12.50;99.90;;;;;;5071255;28;20500;-78
2022/01/02 03:57:02;;;;;;;13.18;4.40;;;12.50;99.90;;;;;;5072433;28;20056;-78
2022/01/02 03:59:29;;;;;;;11.95;3.85;;;12.50;99.90;;;;;;5070738;28;20113;-78
2022/01/02 04:01:55;;;;;;;14.13;4.00;;;12.40;99.90;;;;;;5072243;28;20484;-78
2022/01/02 04:04:20;;;;;;;9.95;4.28;;;12.40;99.90;;;;;;5072402;28;20032;-78
2022/01/02 04:06:46;;;;;;;9.00;4.10;;;12.30;99.90;;;;;;5071235;28;20032;-78
2022/01/02 04:09:12;;;;;;;15.00;4.63;;;12.30;99.90;;;;;;5070875;28;20373;-78
2022/01/02 04:11:37;;;;;;;13.70;4.13;;;12.40;99.90;;;;;;5071655;28;20028;-78
2022/01/02 04:14:03;;;;;;;8.00;3.92;;;12.50;99.90;;;;;;5075799;28;20024;-78
2022/01/02 04:16:29;;;;;;;10.70;4.55;;;12.60;99.90;;;;;;5074455;28;20024;-78
2022/01/02 04:18:55;;;;;;;13.38;4.63;;;12.50;99.90;;;;;;5074549;28;20067;-78
2022/01/02 04:21:21;;;;;;;10.60;4.05;;;12.40;99.90;;;;;;5074476;28;20075;-77
2022/01/02 04:23:47;;;;;;;14.68;4.00;;;12.30;99.90;;;;;;5074673;28;20078;-78
2022/01/02 04:26:13;;;;;;;14.60;3.78;;;12.30;99.90;;;;;;5074129;28;20028;-78
2022/01/02 04:28:39;;;;;;;12.60;4.20;;;12.30;99.90;;;;;;5074120;28;20035;-78
2022/01/02 04:31:05;;;;;;;14.90;3.67;;;12.20;99.90;;;;;;5074389;28;20453;-78
2022/01/02 04:33:32;;;;;;;11.27;3.45;;;12.10;99.90;;;;;;5057999;28;20113;-78
2022/01/02 04:35:57;;;;;;;10.32;3.58;;;12.10;99.90;;;;;;5074131;28;20121;-78
2022/01/02 04:38:23;;;;;;;9.52;3.92;;;12.10;99.90;;;;;;5075620;28;20032;-78
2022/01/02 04:40:49;;;;;;;10.30;3.88;;;12.10;99.90;;;;;;5075356;28;20032;-78
2022/01/02 04:43:15;;;;;;;16.88;4.50;;;12.00;99.90;;;;;;5074086;28;20469;-78
2022/01/02 04:45:41;;;;;;;10.80;3.88;;;12.10;99.90;;;;;;5074136;28;20692;-78
2022/01/02 04:48:07;;;;;;;16.88;4.13;;;12.20;99.90;;;;;;5074030;28;20481;-77
2022/01/02 04:50:33;;;;;;;14.98;3.97;;;12.30;99.90;;;;;;5073959;28;20024;-78
2022/01/02 04:53:00;;;;;;;14.65;3.78;;;12.20;99.90;;;;;;5074127;28;20025;-78
2022/01/02 04:55:26;;;;;;;13.73;4.10;;;12.30;99.90;;;;;;5073973;28;20027;-77
2022/01/02 04:57:52;;;;;;;9.48;3.50;;;12.20;99.90;;;;;;5073757;28;20029;-78
2022/01/02 05:00:18;;;;;;;8.10;3.90;;;12.20;99.90;;;;;;5056858;28;20039;-78
2022/01/02 05:02:49;;;;;;;12.07;4.30;;;12.30;99.90;;;;;;5073690;28;20024;-78
2022/01/02 05:05:16;;;;;;;9.18;4.20;;;12.20;99.90;;;;;;5075102;28;20028;-77
2022/01/02 05:07:42;;;;;;;13.32;4.60;;;12.20;99.90;;;;;;5073634;28;20036;-77
2022/01/02 05:10:08;;;;;;;9.98;3.90;;;12.10;99.90;;;;;;5073369;28;20028;-77
2022/01/02 05:12:34;;;;;;;17.60;4.15;;;12.10;99.90;;;;;;5073663;28;20028;-77
2022/01/02 05:15:01;;;;;;;12.70;4.00;;;12.20;99.90;;;;;;5073449;28;20043;-78
2022/01/02 05:17:27;;;;;;;17.08;3.65;;;12.20;99.90;;;;;;5073616;28;20469;-78
2022/01/02 05:19:53;;;;;;;12.50;4.57;;;12.10;99.90;;;;;;5073402;28;20362;-78
2022/01/02 05:22:19;;;;;;;10.50;4.03;;;12.10;99.90;;;;;;5073410;28;20131;-78
2022/01/02 05:24:46;;;;;;;8.98;3.50;;;12.10;99.90;;;;;;5073146;28;20017;-78
2022/01/02 05:27:12;;;;;;;10.93;4.32;;;12.00;99.90;;;;;;5073115;28;20495;-78
2022/01/02 05:29:38;;;;;;;10.27;2.97;;;12.00;99.90;;;;;;5073570;28;20452;-78
2022/01/02 05:32:04;;;;;;;7.28;3.30;;;12.00;99.90;;;;;;5073173;28;20113;-78
2022/01/02 05:34:30;;;;;;;12.93;3.42;;;12.00;99.90;;;;;;5073419;28;20020;-78
2022/01/02 05:36:56;;;;;;;14.07;4.20;;;12.00;99.90;;;;;;5074194;28;20039;-77
2022/01/02 05:39:23;;;;;;;12.65;3.42;;;12.00;99.90;;;;;;5072998;28;20020;-77
2022/01/02 05:41:50;;;;;;;12.77;3.40;;;12.00;99.90;;;;;;5073209;28;20032;-77
2022/01/02 05:44:18;;;;;;;9.18;3.60;;;12.00;99.90;;;;;;5073194;28;20082;-77
2022/01/02 05:46:44;;;;;;;7.65;3.47;;;12.10;99.90;;;;;;5072985;28;20481;-75
2022/01/02 05:49:10;;;;;;;14.88;4.50;;;12.10;99.90;;;;;;5074275;28;20036;-77
2022/01/02 05:51:36;;;;;;;8.35;4.05;;;12.00;99.90;;;;;;5072706;28;20033;-77
2022/01/02 05:54:03;;;;;;;15.60;4.95;;;12.10;99.90;;;;;;5072662;28;20020;-77
2022/01/02 05:56:29;;;;;;;10.20;4.28;;;12.10;99.90;;;;;;5072756;28;20028;-77
2022/01/02 05:58:55;;;;;;;15.82;3.65;;;12.10;99.90;;;;;;5072840;28;20465;-78
2022/01/02 06:01:21;;;;;;;10.07;3.33;;;12.10;99.90;;;;;;5073819;28;20029;-78
2022/01/02 06:03:47;;;;;;;11.15;3.47;;;12.10;99.90;;;;;;5071906;28;20028;-77
2022/01/02 06:06:13;;;;;;;9.52;3.40;;;12.10;99.90;;;;;;5056131;28;20516;-78
2022/01/02 06:08:39;;;;;;;7.15;3.33;;;12.10;99.90;;;;;;5072195;28;20017;-77
2022/01/02 06:11:05;;;;;;;8.65;3.55;;;12.10;99.90;;;;;;5073795;28;20013;-78
2022/01/02 06:13:32;;;;;;;11.10;3.65;;;12.10;99.90;;;;;;5072404;28;20025;-77
2022/01/02 06:15:58;;;;;;;10.23;3.42;;;12.10;99.90;;;;;;5072334;28;20025;-77
2022/01/02 06:18:24;;;;;;;10.43;3.30;;;12.10;99.90;;;;;;5072242;28;20375;-78
2022/01/02 06:20:50;;;;;;;14.70;3.70;;;12.10;99.90;;;;;;5073601;28;20064;-77
2022/01/02 06:23:16;;;;;;;10.43;2.85;;;12.10;99.90;;;;;;5072046;28;20042;-78
2022/01/02 06:25:43;;;;;;;6.07;3.35;;;12.10;99.90;;;;;;5072160;28;20019;-76
2022/01/02 06:28:09;;;;;;;10.00;3.55;;;12.10;99.90;;;;;;5071923;28;20025;-78
2022/01/02 06:30:35;;;;;;;5.05;2.85;;;12.20;99.90;;;;;;5073494;28;20027;-81
2022/01/02 06:33:01;;;;;;;6.53;2.70;;;12.20;99.90;;;;;;5072134;28;20056;-77
2022/01/02 06:35:32;;;;;;;13.90;3.17;;;12.20;99.90;;;;;;5071686;28;20036;-77
2022/01/02 06:37:59;;;;;;;9.15;2.80;;;12.30;99.90;;;;;;5071815;28;20024;-77
2022/01/02 06:40:26;;;;;;;11.93;3.45;;;12.20;99.90;;;;;;5071821;28;20119;-77
2022/01/02 06:42:53;;;;;;;9.45;3.40;;;12.20;99.90;;;;;;5070931;28;20020;-77
2022/01/02 06:45:19;;;;;;;11.38;3.45;;;12.20;99.90;;;;;;5062854;28;20470;-78
2022/01/02 06:47:45;;;;;;;10.13;3.17;;;12.20;99.90;;;;;;5051812;28;20033;-77
2022/01/02 06:50:12;;;;;;;4.90;2.30;;;12.20;99.90;;;;;;5051890;28;20027;-78
2022/01/02 06:52:38;;;;;;;7.53;2.60;;;12.20;99.90;;;;;;5051496;28;20036;-76
2022/01/02 06:55:05;;;;;;;6.22;2.50;;;12.20;99.90;;;;;;5051829;28;20464;-77
2022/01/02 06:57:31;;;;;;;11.55;3.03;;;12.20;99.90;;;;;;5051864;28;20029;-78
2022/01/02 06:59:57;;;;;;;8.93;3.38;;;12.10;99.90;;;;;;5051589;28;20386;-78
2022/01/02 07:02:23;;;;;;;8.27;2.70;;;12.20;99.90;;;;;;5051653;28;20032;-78
2022/01/02 07:04:48;;;;;;;6.50;2.90;;;12.10;99.90;;;;;;5050936;28;20033;-78
2022/01/02 07:07:14;;;;;;;7.97;3.28;;;12.20;99.90;;;;;;5052793;28;20024;-77
2022/01/02 07:09:40;;;;;;;6.88;3.40;;;12.20;99.90;;;;;;5063013;28;20028;-77
2022/01/02 07:12:06;;;;;;;9.63;3.30;;;12.20;99.90;;;;;;5072817;28;20020;-77
2022/01/02 07:14:32;;;;;;;9.38;2.70;;;12.20;99.90;;;;;;5071887;28;20035;-78
2022/01/02 07:16:59;;;;;;;7.88;3.40;;;12.20;99.90;;;;;;5072885;28;20024;-78
2022/01/02 07:19:24;;;;;;;6.80;2.97;;;12.20;99.90;;;;;;5072554;28;20155;-77
2022/01/02 07:21:51;;;;;;;5.97;2.97;;;12.10;99.90;;;;;;5072525;28;20520;-78
2022/01/02 07:24:17;;;;;;;7.40;3.10;;;12.10;99.90;;;;;;5072616;28;20047;-77
2022/01/02 07:26:43;;;;;;;10.30;3.13;;;12.10;99.90;;;;;;5072717;28;20085;-78
2022/01/02 07:29:09;;;;;;;8.30;2.50;;;12.10;99.90;;;;;;5072575;28;20029;-77
2022/01/02 07:31:35;;;;;;;9.90;3.67;;;12.20;99.90;;;;;;5072723;28;20104;-76
2022/01/02 07:34:01;;;;;;;6.55;2.75;;;12.10;99.90;;;;;;5072604;28;20107;-77
2022/01/02 07:36:27;;;;;;;6.18;2.95;;;12.10;99.90;;;;;;5072386;28;20074;-76
2022/01/02 07:38:52;;;;;;;7.10;3.35;;;12.20;99.90;;;;;;5071472;28;20040;-77
2022/01/02 07:41:18;;;;;;;5.05;2.65;;;12.20;99.90;;;;;;5071385;28;20037;-77
2022/01/02 07:43:44;;;;;;;6.90;3.13;;;12.30;99.90;;;;;;5071291;28;20036;-77
2022/01/02 07:46:11;;;;;;;6.55;2.95;;;12.30;99.90;;;;;;5072625;28;20042;-79
2022/01/02 07:48:36;;;;;;;8.05;3.70;;;12.20;99.90;;;;;;5076428;28;20065;-80
2022/01/02 07:51:02;;;;;;;5.30;2.67;;;12.20;99.90;;;;;;5075999;28;20040;-79
2022/01/02 07:53:28;;;;;;;9.13;3.30;;;12.10;99.90;;;;;;5076537;28;20033;-79
2022/01/02 07:55:54;;;;;;;6.82;3.45;;;12.10;99.90;;;;;;5075063;28;20037;-77
2022/01/02 07:58:19;;;;;;;5.72;3.42;;;12.10;99.90;;;;;;5076400;28;20023;-79
2022/01/02 08:00:45;;;;;;;8.13;3.65;;;12.10;99.90;;;;;;5076139;28;20094;-78
2022/01/02 08:03:11;;;;;;;7.95;3.42;;;12.00;99.90;;;;;;5076149;28;20377;-78
2022/01/02 08:05:36;;;;;;;12.68;3.70;;;11.90;99.90;;;;;;5075800;28;20508;-76
2022/01/02 08:08:02;;;;;;;12.95;3.92;;;11.90;99.90;;;;;;5076256;28;20588;-78
2022/01/02 08:10:28;;;;;;;8.30;4.07;;;11.90;99.90;;;;;;5075835;28;20032;-76
2022/01/02 08:12:54;;;;;;;5.53;3.13;;;11.90;99.90;;;;;;5076063;28;20112;-78
2022/01/02 08:15:21;;;;;;;8.70;4.25;;;11.90;99.90;;;;;;5075989;28;20033;-79
2022/01/02 08:17:47;;;;;;;7.25;3.30;;;11.90;99.90;;;;;;5076033;28;20021;-78
2022/01/02 08:20:13;;;;;;;10.63;4.13;;;11.90;99.90;;;;;;5075017;28;20032;-76
2022/01/02 08:22:39;;;;;;;9.00;4.03;;;11.90;99.90;;;;;;5075950;28;20062;-78
2022/01/02 08:25:05;;;;;;;11.55;4.28;;;11.90;99.90;;;;;;5075660;28;20032;-79
2022/01/02 08:27:31;;;;;;;8.85;4.15;;;11.90;99.90;;;;;;5075798;28;20032;-78
2022/01/02 08:29:57;;;;;;;13.10;4.60;;;12.00;99.90;;;;;;5075564;28;20106;-79
2022/01/02 08:32:23;;;;;;;9.00;4.00;;;12.00;99.90;;;;;;5075728;28;20032;-78
2022/01/02 08:34:48;;;;;;;8.95;3.97;;;12.10;99.90;;;;;;5075200;28;20028;-78
2022/01/02 08:37:15;;;;;;;5.82;3.72;;;12.20;99.90;;;;;;5075407;28;20401;-79
2022/01/02 08:39:47;;;;;;;14.88;4.57;;;12.20;99.90;;;;;;5075455;28;20040;-79
2022/01/02 08:42:13;;;;;;;7.97;4.15;;;12.30;99.90;;;;;;5075418;28;20020;-79
2022/01/02 08:44:41;;;;;;;10.38;4.28;;;12.30;99.90;;;;;;5075599;28;20090;-79
2022/01/02 08:47:08;;;;;;;6.38;4.00;;;12.30;99.90;;;;;;5075428;28;20045;-79
2022/01/02 08:49:33;;;;;;;6.57;3.85;;;12.30;99.90;;;;;;5074857;28;20035;-78
2022/01/02 08:51:59;;;;;;;8.85;4.07;;;12.30;99.90;;;;;;5075235;28;20025;-78
2022/01/02 08:54:25;;;;;;;11.50;5.15;;;12.40;99.90;;;;;;5075365;28;20028;-78
2022/01/02 08:56:51;;;;;;;10.77;4.70;;;12.50;99.90;;;;;;5075050;28;20020;-78
2022/01/02 08:59:17;;;;;;;16.33;5.00;;;12.50;99.90;;;;;;5074891;28;20457;-77
2022/01/02 09:01:44;;;;;;;10.02;4.35;;;12.60;99.90;;;;;;5074886;28;20501;-78
2022/01/02 09:04:09;;;;;;;9.63;4.35;;;12.60;99.90;;;;;;5074886;28;20032;-78
2022/01/02 09:06:35;;;;;;;6.13;3.70;;;12.60;99.90;;;;;;5075557;28;20081;-78
2022/01/02 09:09:02;;;;;;;8.60;4.65;;;12.50;99.90;;;;;;5075110;28;20043;-78
2022/01/02 09:11:27;;;;;;;9.35;4.57;;;12.50;99.90;;;;;;5074818;28;20093;-76
2022/01/02 09:13:53;;;;;;;12.60;4.38;;;12.50;99.90;;;;;;5075307;28;20024;-77
2022/01/02 09:16:19;;;;;;;16.70;5.38;;;12.60;99.90;;;;;;5074817;28;20055;-77
2022/01/02 09:18:44;;;;;;;10.27;4.65;;;12.60;99.90;;;;;;5074498;28;20063;-78
2022/01/02 09:21:10;;;;;;;9.55;4.13;;;12.60;99.90;;;;;;5074559;28;20215;-78
2022/01/02 09:23:36;;;;;;;10.55;4.72;;;12.60;99.90;;;;;;5073423;28;20094;-78
2022/01/02 09:26:02;;;;;;;8.07;4.35;;;12.60;99.90;;;;;;5074511;28;20079;-77
2022/01/02 09:28:27;;;;;;;10.10;4.72;;;12.60;99.90;;;;;;5074596;28;20029;-78
2022/01/02 09:30:53;;;;;;;10.75;3.83;;;12.50;99.90;;;;;;5073389;28;20112;-78
2022/01/02 09:33:19;;;;;;;14.93;4.53;;;12.50;99.90;;;;;;5074820;28;20461;-78
2022/01/02 09:35:45;;;;;;;12.38;4.13;;;12.50;99.90;;;;;;5074564;28;20067;-78
2022/01/02 09:38:11;;;;;;;12.40;4.28;;;12.50;99.90;;;;;;5074271;28;20029;-78
2022/01/02 09:40:37;;;;;;;13.00;4.43;;;12.70;99.90;;;;;;5074286;28;20157;-77
2022/01/02 09:43:04;;;;;;;12.90;4.47;;;12.60;99.90;;;;;;5072985;28;20025;-78
2022/01/02 09:45:33;;;;;;;8.57;3.75;;;12.70;99.90;;;;;;5074279;28;20062;-77
2022/01/02 09:48:00;;;;;;;9.68;3.70;;;12.80;99.90;;;;;;5074146;28;20428;-78
2022/01/02 09:50:26;;;;;;;17.60;4.93;;;12.70;99.90;;;;;;5074595;28;20025;-78
2022/01/02 09:52:52;;;;;;;10.32;3.67;;;12.80;99.90;;;;;;5074037;28;20443;-78
2022/01/02 09:55:18;;;;;;;12.57;4.53;;;12.70;99.90;;;;;;5074143;28;20115;-77
2022/01/02 09:57:48;;;;;;;10.35;3.78;;;12.80;99.90;;;;;;5073954;28;20111;-77
2022/01/02 10:00:15;;;;;;;11.30;3.85;;;12.90;99.90;;;;;;5073574;28;20396;-77
2022/01/02 10:03:03;;;;;;;11.40;4.38;;;13.00;99.90;;;;;;5073698;28;20043;-78
2022/01/02 10:05:47;;;;;;;12.18;3.38;;;13.20;99.90;;;;;;5073566;28;20115;-77
2022/01/02 10:08:25;;;;;;;9.05;3.80;;;13.30;99.90;;;;;;5072502;28;20043;-77
2022/01/02 10:11:01;;;;;;;14.15;4.80;;;13.50;99.90;;;;;;5051750;28;20078;-77
2022/01/02 10:13:51;;;;;;;9.02;3.95;;;13.50;99.90;;;;;;5053598;28;20025;-77
2022/01/02 10:16:30;;;;;;;10.38;3.97;;;13.50;99.90;;;;;;5053541;28;20040;-78
2022/01/02 10:18:57;;;;;;;16.38;4.13;;;13.90;99.90;;;;;;5053512;28;20378;-78
2022/01/02 10:21:37;;;;;;;21.55;5.60;;;14.10;99.90;;;;;;5053341;28;20041;-78
2022/01/02 10:24:33;;;;;;;17.88;4.55;;;13.60;99.90;;;;;;5053457;28;20064;-78
2022/01/02 10:27:15;;;;;;;10.65;4.93;;;13.60;99.90;;;;;;5067554;28;20108;-77
2022/01/02 10:29:47;;;;;;;14.98;5.15;;;13.40;99.90;;;;;;5073094;28;20519;-76
2022/01/02 10:32:25;;;;;;;;;;;13.40;99.90;;;;;;5072562;28;20028;-78
2022/01/02 10:34:52;;;;;;;16.25;4.82;;;13.60;99.90;;;;;;5073389;28;20368;-78
2022/01/02 10:37:25;;;;;;;11.38;3.47;;;13.60;99.90;;;;;;5073169;28;20052;-76
2022/01/02 10:39:50;;;;;;;13.02;4.18;;;13.70;99.90;;;;;;5073045;28;20036;-78
2022/01/02 10:42:18;;;;;;;14.18;3.95;;;14.10;99.90;;;;;;5073146;28;20028;-77
2022/01/02 10:44:44;;;;;;;8.18;4.28;;;13.80;99.90;;;;;;5072779;28;20054;-78
2022/01/02 10:47:21;;;;;;;6.93;3.53;;;13.70;99.90;;;;;;5073265;28;20037;-78
2022/01/02 10:49:47;;;;;;;10.70;3.55;;;13.50;99.90;;;;;;5073103;28;20089;-78
2022/01/02 10:52:28;;;;;;;13.85;4.50;;;13.50;99.90;;;;;;5072987;28;20033;-77
2022/01/02 10:54:55;;;;;;;12.98;5.03;;;13.50;99.90;;;;;;5073018;28;20020;-78
2022/01/02 10:57:20;;;;;;;14.98;4.68;;;13.40;99.90;;;;;;5073057;28;20029;-78
2022/01/02 10:59:47;;;;;;;8.85;4.28;;;13.40;99.90;;;;;;5072646;28;20027;-77
2022/01/02 11:02:15;;;;;;;10.27;4.50;;;13.40;99.90;;;;;;5072966;28;20070;-77
2022/01/02 11:05:04;;;;;;;14.43;4.65;;;13.40;99.90;;;;;;5072582;28;20110;-77
2022/01/02 11:07:50;;;;;;;11.30;4.13;;;13.30;99.90;;;;;;5072827;28;20032;-76
2022/01/02 11:10:19;;;;;;;11.73;4.85;;;13.30;99.90;;;;;;5072744;28;20040;-78
2022/01/02 11:12:46;;;;;;;13.13;5.05;;;13.40;99.90;;;;;;5072624;28;20017;-77
2022/01/02 11:15:18;;;;;;;16.90;4.93;;;13.40;99.90;;;;;;5072613;28;20119;-77
2022/01/02 11:17:44;;;;;;;13.98;3.80;;;13.40;99.90;;;;;;5072790;28;20037;-77
2022/01/02 11:20:18;;;;;;;13.55;5.47;;;13.60;99.90;;;;;;5072209;28;20028;-77
2022/01/02 11:23:20;;;;;;;12.93;3.53;;;13.60;99.90;;;;;;5072773;28;20423;-77
2022/01/02 11:25:50;;;;;;;9.93;3.97;;;13.50;99.90;;;;;;5072444;28;20040;-77
2022/01/02 11:28:35;;;;;;;8.07;3.42;;;13.50;99.90;;;;;;5072316;28;20040;-74
2022/01/02 11:31:02;;;;;;;10.98;3.40;;;13.60;99.90;;;;;;5072732;28;20124;-77
2022/01/02 11:33:40;;;;;;;15.43;5.43;;;13.70;99.90;;;;;;5072685;28;20056;-77
2022/01/02 11:36:23;;;;;;;12.13;4.95;;;13.80;99.90;;;;;;5071144;28;20063;-78
2022/01/02 11:39:09;;;;;;;14.20;3.10;;;14.30;99.90;;;;;;5054644;28;20090;-78
2022/01/02 11:41:50;;;;;;;10.25;3.53;;;14.20;99.90;;;;;;5072012;28;20049;-78
2022/01/02 11:44:17;;;;;;;11.68;3.50;;;14.10;99.90;;;;;;5071409;28;20112;-78
2022/01/02 11:46:57;;;;;;;12.10;3.55;;;14.00;99.90;;;;;;5070973;28;20397;-78
2022/01/02 11:49:25;;;;;;;10.73;3.25;;;14.10;99.90;;;;;;5072201;28;20025;-78
2022/01/02 11:51:58;;;;;;;12.85;4.55;;;13.90;99.90;;;;;;5071246;28;20493;-78
2022/01/02 11:54:31;;;;;;;18.42;7.28;;;13.90;99.90;;;;;;5072230;28;20028;-78
2022/01/02 11:56:57;;;;;;;10.57;3.85;;;13.90;99.90;;;;;;5072093;28;20047;-78
2022/01/02 11:59:38;;;;;;;15.80;5.25;;;14.00;99.90;;;;;;5070962;28;20073;-77
2022/01/02 12:02:30;;;;;;;19.25;6.50;;;14.10;99.90;;;;;;5072362;28;20046;-77
2022/01/02 12:07:34;;;;;;;11.82;5.20;;;14.00;99.90;;;;;;5070823;28;20048;-77
2022/01/02 12:10:17;;;;;;;8.18;3.38;;;13.90;99.90;;;;;;5070843;28;20546;-78
2022/01/02 12:16:01;;;;;;;13.70;4.70;;;13.90;99.90;;;;;;5071468;28;20048;-78
2022/01/02 12:18:31;;;;;;;20.00;5.68;;;13.90;99.90;;;;;;5072051;28;20059;-78
2022/01/02 12:20:57;;;;;;;14.10;4.65;;;14.10;99.90;;;;;;5072102;28;20097;-78
2022/01/02 12:23:42;;;;;;;14.23;3.42;;;14.30;99.90;;;;;;5071982;28;20028;-77
2022/01/02 12:26:28;;;;;;;16.30;6.03;;;14.30;99.90;;;;;;5071530;28;20028;-78
2022/01/02 12:29:01;;;;;;;16.67;5.75;;;14.40;99.90;;;;;;5071885;28;20032;-78
2022/01/02 12:31:41;;;;;;;14.45;3.63;;;14.30;99.90;;;;;;5071882;28;20029;-78
2022/01/02 12:34:19;;;;;;;12.57;4.50;;;14.10;99.90;;;;;;5075014;28;20060;-77
2022/01/02 12:36:50;;;;;;;14.55;5.38;;;14.00;99.90;;;;;;5074064;28;20024;-78
2022/01/02 12:39:37;;;;;;;14.45;5.43;;;14.10;99.90;;;;;;5074421;28;20151;-78
2022/01/02 12:42:11;;;;;;;20.77;6.75;;;14.10;99.90;;;;;;5075356;28;20040;-78
2022/01/02 12:44:37;;;;;;;15.77;4.68;;;14.00;99.90;;;;;;5075465;28;20032;-77
2022/01/02 12:47:05;;;;;;;12.00;2.92;;;14.00;99.90;;;;;;5075413;28;20465;-78
2022/01/02 12:49:36;;;;;;;9.38;3.10;;;14.00;99.90;;;;;;5074248;28;20020;-77
2022/01/02 12:52:05;;;;;;;19.50;5.38;;;14.00;99.90;;;;;;5073925;28;20060;-78
2022/01/02 12:54:36;;;;;;;8.95;2.83;;;14.10;99.90;;;;;;5075008;28;20029;-78
2022/01/02 12:57:06;;;;;;;16.00;4.97;;;14.10;99.90;;;;;;5074115;28;20039;-76
2022/01/02 12:59:46;;;;;;;20.50;8.85;;;14.20;99.90;;;;;;5073825;28;20530;-77
2022/01/02 13:02:21;;;;;;;13.50;4.05;;;14.40;99.90;;;;;;5075098;28;20473;-77
2022/01/02 13:04:52;;;;;;;9.90;2.90;;;14.40;99.90;;;;;;5075091;28;20028;-77
2022/01/02 13:07:28;;;;;;;12.87;2.80;;;14.40;99.90;;;;;;5074983;28;20029;-77